sensor_id;sensor_type;location;lat;lon;timestamp;P1;durP1;ratioP1;P2;durP2;ratioP2
51995;SDS011;38010;53.264;6.592;2023-05-10T00:02:09;0.93;;;0.82;;
51995;SDS011;38010;53.264;6.592;2023-05-10T00:04:34;0.85;;;0.80;;
51995;SDS011;38010;53.264;6.592;2023-05-10T00:07:00;0.70;;;0.70;;
51995;SDS011;38010;53.264;6.592;2023-05-10T00:09:26;0.77;;;0.77;;
51995;SDS011;38010;53.264;6.592;2023-05-10T00:11:52;0.88;;;0.88;;
51995;SDS011;38010;53.264;6.592;2023-05-10T00:14:18;0.70;;;0.70;;
51995;SDS011;38010;53.264;6.592;2023-05-10T00:16:44;0.80;;;0.80;;
51995;SDS011;38010;53.264;6.592;2023-05-10T00:19:10;0.70;;;0.70;;
51995;SDS011;38010;53.264;6.592;2023-05-10T00:21:35;0.85;;;0.70;;
51995;SDS011;38010;53.264;6.592;2023-05-10T00:24:01;0.57;;;0.57;;
51995;SDS011;38010;53.264;6.592;2023-05-10T00:26:27;0.63;;;0.60;;
51995;SDS011;38010;53.264;6.592;2023-05-10T00:28:53;0.70;;;0.68;;
51995;SDS011;38010;53.264;6.592;2023-05-10T00:31:18;0.80;;;0.80;;
51995;SDS011;38010;53.264;6.592;2023-05-10T00:33:44;0.80;;;0.80;;
51995;SDS011;38010;53.264;6.592;2023-05-10T00:36:10;0.80;;;0.80;;
51995;SDS011;38010;53.264;6.592;2023-05-10T00:38:36;0.60;;;0.60;;
51995;SDS011;38010;53.264;6.592;2023-05-10T00:41:01;0.70;;;0.70;;
51995;SDS011;38010;53.264;6.592;2023-05-10T00:43:27;0.60;;;0.60;;
51995;SDS011;38010;53.264;6.592;2023-05-10T00:45:53;0.65;;;0.65;;
51995;SDS011;38010;53.264;6.592;2023-05-10T00:48:19;1.02;;;0.93;;
51995;SDS011;38010;53.264;6.592;2023-05-10T00:50:46;0.80;;;0.80;;
51995;SDS011;38010;53.264;6.592;2023-05-10T00:53:12;0.70;;;0.60;;
51995;SDS011;38010;53.264;6.592;2023-05-10T00:55:38;0.60;;;0.60;;
51995;SDS011;38010;53.264;6.592;2023-05-10T00:58:04;0.95;;;0.70;;
51995;SDS011;38010;53.264;6.592;2023-05-10T01:00:30;0.98;;;0.65;;
51995;SDS011;38010;53.264;6.592;2023-05-10T01:02:57;0.52;;;0.52;;
51995;SDS011;38010;53.264;6.592;2023-05-10T01:05:23;0.60;;;0.60;;
51995;SDS011;38010;53.264;6.592;2023-05-10T01:07:49;0.73;;;0.73;;
51995;SDS011;38010;53.264;6.592;2023-05-10T01:10:14;0.50;;;0.50;;
51995;SDS011;38010;53.264;6.592;2023-05-10T01:12:40;1.30;;;0.75;;
51995;SDS011;38010;53.264;6.592;2023-05-10T01:15:09;0.60;;;0.60;;
51995;SDS011;38010;53.264;6.592;2023-05-10T01:17:37;0.50;;;0.50;;
51995;SDS011;38010;53.264;6.592;2023-05-10T01:20:05;0.55;;;0.55;;
51995;SDS011;38010;53.264;6.592;2023-05-10T01:31:07;0.80;;;0.70;;
51995;SDS011;38010;53.264;6.592;2023-05-10T01:33:46;0.50;;;0.50;;
51995;SDS011;38010;53.264;6.592;2023-05-10T01:38:59;0.60;;;0.57;;
51995;SDS011;38010;53.264;6.592;2023-05-10T01:46:42;0.50;;;0.50;;
51995;SDS011;38010;53.264;6.592;2023-05-10T01:49:09;0.50;;;0.50;;
51995;SDS011;38010;53.264;6.592;2023-05-10T01:51:46;0.50;;;0.50;;
51995;SDS011;38010;53.264;6.592;2023-05-10T01:54:17;0.50;;;0.50;;
51995;SDS011;38010;53.264;6.592;2023-05-10T01:56:45;0.60;;;0.60;;
51995;SDS011;38010;53.264;6.592;2023-05-10T01:59:16;0.98;;;0.50;;
51995;SDS011;38010;53.264;6.592;2023-05-10T02:01:44;0.60;;;0.55;;
51995;SDS011;38010;53.264;6.592;2023-05-10T02:04:12;0.50;;;0.50;;
51995;SDS011;38010;53.264;6.592;2023-05-10T02:06:42;0.60;;;0.60;;
51995;SDS011;38010;53.264;6.592;2023-05-10T02:09:10;0.73;;;0.70;;
51995;SDS011;38010;53.264;6.592;2023-05-10T02:11:38;0.60;;;0.60;;
51995;SDS011;38010;53.264;6.592;2023-05-10T02:14:07;0.43;;;0.43;;
51995;SDS011;38010;53.264;6.592;2023-05-10T02:16:36;0.68;;;0.60;;
51995;SDS011;38010;53.264;6.592;2023-05-10T02:19:03;0.60;;;0.60;;
51995;SDS011;38010;53.264;6.592;2023-05-10T02:21:31;0.60;;;0.60;;
51995;SDS011;38010;53.264;6.592;2023-05-10T02:23:58;0.60;;;0.60;;
51995;SDS011;38010;53.264;6.592;2023-05-10T02:26:26;0.55;;;0.55;;
51995;SDS011;38010;53.264;6.592;2023-05-10T02:28:53;0.60;;;0.60;;
51995;SDS011;38010;53.264;6.592;2023-05-10T02:31:21;0.50;;;0.50;;
51995;SDS011;38010;53.264;6.592;2023-05-10T02:33:47;0.57;;;0.57;;
51995;SDS011;38010;53.264;6.592;2023-05-10T02:36:14;0.40;;;0.40;;
51995;SDS011;38010;53.264;6.592;2023-05-10T02:38:41;0.50;;;0.50;;
51995;SDS011;38010;53.264;6.592;2023-05-10T02:41:07;0.60;;;0.60;;
51995;SDS011;38010;53.264;6.592;2023-05-10T02:43:34;0.60;;;0.60;;
51995;SDS011;38010;53.264;6.592;2023-05-10T02:46:01;0.40;;;0.40;;
51995;SDS011;38010;53.264;6.592;2023-05-10T02:48:27;0.40;;;0.40;;
51995;SDS011;38010;53.264;6.592;2023-05-10T02:50:54;0.50;;;0.50;;
51995;SDS011;38010;53.264;6.592;2023-05-10T02:53:23;0.52;;;0.52;;
51995;SDS011;38010;53.264;6.592;2023-05-10T02:56:01;0.80;;;0.70;;
51995;SDS011;38010;53.264;6.592;2023-05-10T02:58:32;0.60;;;0.60;;
51995;SDS011;38010;53.264;6.592;2023-05-10T03:00:59;0.77;;;0.63;;
51995;SDS011;38010;53.264;6.592;2023-05-10T03:03:25;0.60;;;0.60;;
51995;SDS011;38010;53.264;6.592;2023-05-10T03:05:51;0.60;;;0.60;;
51995;SDS011;38010;53.264;6.592;2023-05-10T03:08:19;0.77;;;0.70;;
51995;SDS011;38010;53.264;6.592;2023-05-10T03:10:55;0.98;;;0.90;;
51995;SDS011;38010;53.264;6.592;2023-05-10T03:16:09;0.70;;;0.70;;
51995;SDS011;38010;53.264;6.592;2023-05-10T03:18:44;1.05;;;0.80;;
51995;SDS011;38010;53.264;6.592;2023-05-10T03:21:25;0.88;;;0.82;;
51995;SDS011;38010;53.264;6.592;2023-05-10T03:23:57;0.80;;;0.80;;
51995;SDS011;38010;53.264;6.592;2023-05-10T03:26:26;0.98;;;0.90;;
51995;SDS011;38010;53.264;6.592;2023-05-10T03:28:53;0.98;;;0.75;;
51995;SDS011;38010;53.264;6.592;2023-05-10T03:31:20;1.00;;;0.82;;
51995;SDS011;38010;53.264;6.592;2023-05-10T03:33:49;1.20;;;0.95;;
51995;SDS011;38010;53.264;6.592;2023-05-10T03:36:16;0.77;;;0.75;;
51995;SDS011;38010;53.264;6.592;2023-05-10T03:38:42;1.30;;;1.00;;
51995;SDS011;38010;53.264;6.592;2023-05-10T03:41:08;1.10;;;1.00;;
51995;SDS011;38010;53.264;6.592;2023-05-10T03:43:33;1.00;;;0.90;;
51995;SDS011;38010;53.264;6.592;2023-05-10T03:46:01;0.80;;;0.80;;
51995;SDS011;38010;53.264;6.592;2023-05-10T03:48:32;0.85;;;0.85;;
51995;SDS011;38010;53.264;6.592;2023-05-10T03:50:58;1.10;;;0.98;;
51995;SDS011;38010;53.264;6.592;2023-05-10T03:53:25;0.95;;;0.85;;
51995;SDS011;38010;53.264;6.592;2023-05-10T03:55:51;1.00;;;0.90;;
51995;SDS011;38010;53.264;6.592;2023-05-10T03:58:17;1.00;;;0.90;;
51995;SDS011;38010;53.264;6.592;2023-05-10T04:00:43;1.25;;;1.00;;
51995;SDS011;38010;53.264;6.592;2023-05-10T04:03:13;1.00;;;0.90;;
51995;SDS011;38010;53.264;6.592;2023-05-10T04:05:39;0.98;;;0.88;;
51995;SDS011;38010;53.264;6.592;2023-05-10T04:08:05;0.90;;;0.90;;
51995;SDS011;38010;53.264;6.592;2023-05-10T04:10:31;0.80;;;0.80;;
51995;SDS011;38010;53.264;6.592;2023-05-10T04:12:57;2.08;;;1.10;;
51995;SDS011;38010;53.264;6.592;2023-05-10T04:15:23;1.27;;;0.90;;
51995;SDS011;38010;53.264;6.592;2023-05-10T04:17:49;0.80;;;0.80;;
51995;SDS011;38010;53.264;6.592;2023-05-10T04:20:15;1.15;;;0.85;;
51995;SDS011;38010;53.264;6.592;2023-05-10T04:22:41;0.85;;;0.80;;
51995;SDS011;38010;53.264;6.592;2023-05-10T04:25:07;0.98;;;0.80;;
51995;SDS011;38010;53.264;6.592;2023-05-10T04:27:33;0.70;;;0.70;;
51995;SDS011;38010;53.264;6.592;2023-05-10T04:29:58;0.80;;;0.80;;
51995;SDS011;38010;53.264;6.592;2023-05-10T04:32:24;0.77;;;0.70;;
51995;SDS011;38010;53.264;6.592;2023-05-10T04:34:50;0.80;;;0.68;;
51995;SDS011;38010;53.264;6.592;2023-05-10T04:37:16;0.80;;;0.80;;
51995;SDS011;38010;53.264;6.592;2023-05-10T04:39:42;0.77;;;0.70;;
51995;SDS011;38010;53.264;6.592;2023-05-10T04:42:08;0.50;;;0.50;;
51995;SDS011;38010;53.264;6.592;2023-05-10T04:44:34;1.08;;;0.55;;
51995;SDS011;38010;53.264;6.592;2023-05-10T04:47:01;0.73;;;0.50;;
51995;SDS011;38010;53.264;6.592;2023-05-10T04:49:28;0.80;;;0.68;;
51995;SDS011;38010;53.264;6.592;2023-05-10T04:51:54;1.15;;;0.60;;
51995;SDS011;38010;53.264;6.592;2023-05-10T04:54:20;1.15;;;0.60;;
51995;SDS011;38010;53.264;6.592;2023-05-10T04:56:46;0.80;;;0.60;;
51995;SDS011;38010;53.264;6.592;2023-05-10T04:59:12;0.60;;;0.60;;
51995;SDS011;38010;53.264;6.592;2023-05-10T05:01:38;0.65;;;0.63;;
51995;SDS011;38010;53.264;6.592;2023-05-10T05:04:04;0.50;;;0.50;;
51995;SDS011;38010;53.264;6.592;2023-05-10T05:06:30;0.63;;;0.47;;
51995;SDS011;38010;53.264;6.592;2023-05-10T05:08:56;0.50;;;0.50;;
51995;SDS011;38010;53.264;6.592;2023-05-10T05:11:21;0.63;;;0.50;;
51995;SDS011;38010;53.264;6.592;2023-05-10T05:13:47;0.50;;;0.50;;
51995;SDS011;38010;53.264;6.592;2023-05-10T05:16:13;0.80;;;0.40;;
51995;SDS011;38010;53.264;6.592;2023-05-10T05:18:38;0.50;;;0.50;;
51995;SDS011;38010;53.264;6.592;2023-05-10T05:21:16;0.50;;;0.50;;
51995;SDS011;38010;53.264;6.592;2023-05-10T05:23:43;0.50;;;0.50;;
51995;SDS011;38010;53.264;6.592;2023-05-10T05:26:09;0.60;;;0.60;;
51995;SDS011;38010;53.264;6.592;2023-05-10T05:28:35;0.50;;;0.50;;
51995;SDS011;38010;53.264;6.592;2023-05-10T05:31:05;0.60;;;0.45;;
51995;SDS011;38010;53.264;6.592;2023-05-10T05:33:32;0.47;;;0.45;;
51995;SDS011;38010;53.264;6.592;2023-05-10T05:36:02;0.40;;;0.40;;
51995;SDS011;38010;53.264;6.592;2023-05-10T05:38:28;0.40;;;0.40;;
51995;SDS011;38010;53.264;6.592;2023-05-10T05:40:54;0.50;;;0.50;;
51995;SDS011;38010;53.264;6.592;2023-05-10T05:43:20;0.55;;;0.40;;
51995;SDS011;38010;53.264;6.592;2023-05-10T05:45:45;0.40;;;0.40;;
51995;SDS011;38010;53.264;6.592;2023-05-10T05:48:11;0.52;;;0.40;;
51995;SDS011;38010;53.264;6.592;2023-05-10T05:50:37;0.52;;;0.35;;
51995;SDS011;38010;53.264;6.592;2023-05-10T05:53:02;0.40;;;0.40;;
51995;SDS011;38010;53.264;6.592;2023-05-10T05:55:28;0.80;;;0.60;;
51995;SDS011;38010;53.264;6.592;2023-05-10T05:57:56;3.13;;;0.47;;
51995;SDS011;38010;53.264;6.592;2023-05-10T06:00:22;0.70;;;0.40;;
51995;SDS011;38010;53.264;6.592;2023-05-10T06:02:48;0.63;;;0.45;;
51995;SDS011;38010;53.264;6.592;2023-05-10T06:05:14;0.47;;;0.40;;
51995;SDS011;38010;53.264;6.592;2023-05-10T06:07:40;0.30;;;0.30;;
51995;SDS011;38010;53.264;6.592;2023-05-10T06:10:08;0.43;;;0.40;;
51995;SDS011;38010;53.264;6.592;2023-05-10T06:12:35;0.88;;;0.43;;
51995;SDS011;38010;53.264;6.592;2023-05-10T06:15:02;0.30;;;0.30;;
51995;SDS011;38010;53.264;6.592;2023-05-10T06:17:28;0.30;;;0.30;;
51995;SDS011;38010;53.264;6.592;2023-05-10T06:19:54;0.45;;;0.30;;
51995;SDS011;38010;53.264;6.592;2023-05-10T06:22:20;0.30;;;0.30;;
51995;SDS011;38010;53.264;6.592;2023-05-10T06:24:47;0.30;;;0.30;;
51995;SDS011;38010;53.264;6.592;2023-05-10T06:27:14;1.10;;;0.30;;
51995;SDS011;38010;53.264;6.592;2023-05-10T06:29:40;0.30;;;0.30;;
51995;SDS011;38010;53.264;6.592;2023-05-10T06:32:06;0.30;;;0.30;;
51995;SDS011;38010;53.264;6.592;2023-05-10T06:34:32;0.20;;;0.20;;
51995;SDS011;38010;53.264;6.592;2023-05-10T06:36:57;0.30;;;0.30;;
51995;SDS011;38010;53.264;6.592;2023-05-10T06:39:23;0.30;;;0.30;;
51995;SDS011;38010;53.264;6.592;2023-05-10T06:41:49;0.90;;;0.30;;
51995;SDS011;38010;53.264;6.592;2023-05-10T06:44:15;0.40;;;0.40;;
51995;SDS011;38010;53.264;6.592;2023-05-10T06:46:40;0.30;;;0.30;;
51995;SDS011;38010;53.264;6.592;2023-05-10T06:49:06;0.40;;;0.40;;
51995;SDS011;38010;53.264;6.592;2023-05-10T06:51:32;0.47;;;0.40;;
51995;SDS011;38010;53.264;6.592;2023-05-10T06:53:58;0.32;;;0.32;;
51995;SDS011;38010;53.264;6.592;2023-05-10T06:56:24;0.50;;;0.50;;
51995;SDS011;38010;53.264;6.592;2023-05-10T06:58:50;0.40;;;0.40;;
51995;SDS011;38010;53.264;6.592;2023-05-10T07:01:15;0.55;;;0.50;;
51995;SDS011;38010;53.264;6.592;2023-05-10T07:03:41;0.50;;;0.50;;
51995;SDS011;38010;53.264;6.592;2023-05-10T07:06:07;0.50;;;0.50;;
51995;SDS011;38010;53.264;6.592;2023-05-10T07:08:33;0.68;;;0.52;;
51995;SDS011;38010;53.264;6.592;2023-05-10T07:11:02;0.50;;;0.50;;
51995;SDS011;38010;53.264;6.592;2023-05-10T07:13:32;0.50;;;0.50;;
51995;SDS011;38010;53.264;6.592;2023-05-10T07:15:59;0.47;;;0.47;;
51995;SDS011;38010;53.264;6.592;2023-05-10T07:18:25;0.63;;;0.47;;
51995;SDS011;38010;53.264;6.592;2023-05-10T07:20:51;1.30;;;0.50;;
51995;SDS011;38010;53.264;6.592;2023-05-10T07:23:17;0.60;;;0.60;;
51995;SDS011;38010;53.264;6.592;2023-05-10T07:25:46;0.38;;;0.38;;
51995;SDS011;38010;53.264;6.592;2023-05-10T07:28:13;0.55;;;0.50;;
51995;SDS011;38010;53.264;6.592;2023-05-10T07:30:39;0.50;;;0.50;;
51995;SDS011;38010;53.264;6.592;2023-05-10T07:33:05;0.40;;;0.40;;
51995;SDS011;38010;53.264;6.592;2023-05-10T07:35:32;0.30;;;0.30;;
51995;SDS011;38010;53.264;6.592;2023-05-10T07:37:58;0.55;;;0.40;;
51995;SDS011;38010;53.264;6.592;2023-05-10T07:40:23;0.73;;;0.43;;
51995;SDS011;38010;53.264;6.592;2023-05-10T07:42:49;0.57;;;0.40;;
51995;SDS011;38010;53.264;6.592;2023-05-10T07:45:15;0.40;;;0.40;;
51995;SDS011;38010;53.264;6.592;2023-05-10T07:47:40;0.50;;;0.40;;
51995;SDS011;38010;53.264;6.592;2023-05-10T07:50:06;0.30;;;0.30;;
51995;SDS011;38010;53.264;6.592;2023-05-10T07:52:32;0.40;;;0.40;;
51995;SDS011;38010;53.264;6.592;2023-05-10T07:54:58;1.15;;;0.40;;
51995;SDS011;38010;53.264;6.592;2023-05-10T07:57:24;0.30;;;0.30;;
51995;SDS011;38010;53.264;6.592;2023-05-10T07:59:49;0.30;;;0.30;;
51995;SDS011;38010;53.264;6.592;2023-05-10T08:02:15;0.30;;;0.30;;
51995;SDS011;38010;53.264;6.592;2023-05-10T08:04:41;0.30;;;0.30;;
51995;SDS011;38010;53.264;6.592;2023-05-10T08:07:07;0.30;;;0.30;;
51995;SDS011;38010;53.264;6.592;2023-05-10T08:09:32;0.30;;;0.30;;
51995;SDS011;38010;53.264;6.592;2023-05-10T08:11:58;0.20;;;0.20;;
51995;SDS011;38010;53.264;6.592;2023-05-10T08:14:28;0.30;;;0.30;;
51995;SDS011;38010;53.264;6.592;2023-05-10T08:16:54;0.25;;;0.25;;
51995;SDS011;38010;53.264;6.592;2023-05-10T08:19:20;0.20;;;0.20;;
51995;SDS011;38010;53.264;6.592;2023-05-10T08:21:46;0.20;;;0.20;;
51995;SDS011;38010;53.264;6.592;2023-05-10T08:24:12;0.30;;;0.30;;
51995;SDS011;38010;53.264;6.592;2023-05-10T08:26:38;0.20;;;0.20;;
51995;SDS011;38010;53.264;6.592;2023-05-10T08:29:04;0.30;;;0.30;;
51995;SDS011;38010;53.264;6.592;2023-05-10T08:31:30;0.28;;;0.28;;
51995;SDS011;38010;53.264;6.592;2023-05-10T08:33:55;0.30;;;0.30;;
51995;SDS011;38010;53.264;6.592;2023-05-10T08:36:21;0.38;;;0.30;;
51995;SDS011;38010;53.264;6.592;2023-05-10T08:38:52;0.20;;;0.20;;
51995;SDS011;38010;53.264;6.592;2023-05-10T08:41:22;0.47;;;0.30;;
51995;SDS011;38010;53.264;6.592;2023-05-10T08:43:51;1.27;;;0.30;;
51995;SDS011;38010;53.264;6.592;2023-05-10T08:46:19;0.30;;;0.30;;
51995;SDS011;38010;53.264;6.592;2023-05-10T08:48:46;1.05;;;0.40;;
51995;SDS011;38010;53.264;6.592;2023-05-10T08:51:14;0.32;;;0.32;;
51995;SDS011;38010;53.264;6.592;2023-05-10T08:53:42;0.30;;;0.30;;
51995;SDS011;38010;53.264;6.592;2023-05-10T08:56:09;0.30;;;0.30;;
51995;SDS011;38010;53.264;6.592;2023-05-10T08:58:34;0.30;;;0.30;;
51995;SDS011;38010;53.264;6.592;2023-05-10T09:01:01;0.30;;;0.30;;
51995;SDS011;38010;53.264;6.592;2023-05-10T09:03:28;0.20;;;0.20;;
51995;SDS011;38010;53.264;6.592;2023-05-10T09:05:54;0.30;;;0.30;;
51995;SDS011;38010;53.264;6.592;2023-05-10T09:08:22;0.28;;;0.28;;
51995;SDS011;38010;53.264;6.592;2023-05-10T09:10:50;0.20;;;0.20;;
51995;SDS011;38010;53.264;6.592;2023-05-10T09:13:16;0.40;;;0.30;;
51995;SDS011;38010;53.264;6.592;2023-05-10T09:15:43;0.30;;;0.30;;
51995;SDS011;38010;53.264;6.592;2023-05-10T09:18:10;0.20;;;0.20;;
51995;SDS011;38010;53.264;6.592;2023-05-10T09:20:36;0.30;;;0.30;;
51995;SDS011;38010;53.264;6.592;2023-05-10T09:23:02;0.30;;;0.30;;
51995;SDS011;38010;53.264;6.592;2023-05-10T09:25:27;0.20;;;0.20;;
51995;SDS011;38010;53.264;6.592;2023-05-10T09:27:53;0.30;;;0.30;;
51995;SDS011;38010;53.264;6.592;2023-05-10T09:30:24;0.30;;;0.30;;
51995;SDS011;38010;53.264;6.592;2023-05-10T09:32:51;0.45;;;0.45;;
51995;SDS011;38010;53.264;6.592;2023-05-10T09:35:18;0.20;;;0.20;;
51995;SDS011;38010;53.264;6.592;2023-05-10T09:37:48;0.38;;;0.38;;
51995;SDS011;38010;53.264;6.592;2023-05-10T09:40:18;0.30;;;0.30;;
51995;SDS011;38010;53.264;6.592;2023-05-10T09:42:52;0.52;;;0.30;;
51995;SDS011;38010;53.264;6.592;2023-05-10T09:45:21;0.38;;;0.30;;
51995;SDS011;38010;53.264;6.592;2023-05-10T09:47:51;0.55;;;0.30;;
51995;SDS011;38010;53.264;6.592;2023-05-10T09:50:18;0.30;;;0.30;;
51995;SDS011;38010;53.264;6.592;2023-05-10T09:52:51;0.20;;;0.20;;
51995;SDS011;38010;53.264;6.592;2023-05-10T09:55:25;1.10;;;0.30;;
51995;SDS011;38010;53.264;6.592;2023-05-10T09:58:10;0.22;;;0.20;;
51995;SDS011;38010;53.264;6.592;2023-05-10T10:00:38;0.35;;;0.30;;
51995;SDS011;38010;53.264;6.592;2023-05-10T10:03:06;0.47;;;0.32;;
51995;SDS011;38010;53.264;6.592;2023-05-10T10:05:39;0.20;;;0.20;;
51995;SDS011;38010;53.264;6.592;2023-05-10T10:08:07;0.25;;;0.22;;
51995;SDS011;38010;53.264;6.592;2023-05-10T10:10:33;0.68;;;0.30;;
51995;SDS011;38010;53.264;6.592;2023-05-10T10:12:59;0.30;;;0.30;;
51995;SDS011;38010;53.264;6.592;2023-05-10T10:15:26;0.20;;;0.20;;
51995;SDS011;38010;53.264;6.592;2023-05-10T10:17:52;0.45;;;0.45;;
51995;SDS011;38010;53.264;6.592;2023-05-10T10:20:19;0.30;;;0.30;;
51995;SDS011;38010;53.264;6.592;2023-05-10T10:22:46;0.30;;;0.30;;
51995;SDS011;38010;53.264;6.592;2023-05-10T10:25:15;0.30;;;0.30;;
51995;SDS011;38010;53.264;6.592;2023-05-10T10:33:26;0.30;;;0.30;;
51995;SDS011;38010;53.264;6.592;2023-05-10T10:36:05;0.38;;;0.38;;
51995;SDS011;38010;53.264;6.592;2023-05-10T10:41:49;0.30;;;0.30;;
51995;SDS011;38010;53.264;6.592;2023-05-10T10:47:01;0.43;;;0.43;;
51995;SDS011;38010;53.264;6.592;2023-05-10T10:52:24;0.28;;;0.28;;
51995;SDS011;38010;53.264;6.592;2023-05-10T11:02:57;0.10;;;0.10;;
51995;SDS011;38010;53.264;6.592;2023-05-10T11:07:51;0.30;;;0.30;;
51995;SDS011;38010;53.264;6.592;2023-05-10T11:10:21;0.30;;;0.30;;
51995;SDS011;38010;53.264;6.592;2023-05-10T11:12:51;0.20;;;0.20;;
51995;SDS011;38010;53.264;6.592;2023-05-10T11:15:19;0.20;;;0.20;;
51995;SDS011;38010;53.264;6.592;2023-05-10T11:17:45;0.50;;;0.30;;
51995;SDS011;38010;53.264;6.592;2023-05-10T11:20:15;0.30;;;0.30;;
51995;SDS011;38010;53.264;6.592;2023-05-10T11:22:51;0.20;;;0.20;;
51995;SDS011;38010;53.264;6.592;2023-05-10T11:25:18;0.20;;;0.20;;
51995;SDS011;38010;53.264;6.592;2023-05-10T11:27:44;0.30;;;0.30;;
51995;SDS011;38010;53.264;6.592;2023-05-10T11:30:12;0.25;;;0.25;;
51995;SDS011;38010;53.264;6.592;2023-05-10T11:32:39;0.20;;;0.20;;
51995;SDS011;38010;53.264;6.592;2023-05-10T11:35:08;0.30;;;0.30;;
51995;SDS011;38010;53.264;6.592;2023-05-10T11:37:35;0.38;;;0.30;;
51995;SDS011;38010;53.264;6.592;2023-05-10T11:40:01;0.20;;;0.20;;
51995;SDS011;38010;53.264;6.592;2023-05-10T11:42:27;0.50;;;0.50;;
51995;SDS011;38010;53.264;6.592;2023-05-10T11:44:53;0.30;;;0.30;;
51995;SDS011;38010;53.264;6.592;2023-05-10T11:47:19;1.35;;;0.60;;
51995;SDS011;38010;53.264;6.592;2023-05-10T11:49:45;0.50;;;0.50;;
51995;SDS011;38010;53.264;6.592;2023-05-10T11:52:12;0.60;;;0.45;;
51995;SDS011;38010;53.264;6.592;2023-05-10T11:54:44;0.40;;;0.40;;
51995;SDS011;38010;53.264;6.592;2023-05-10T11:57:20;0.73;;;0.50;;
51995;SDS011;38010;53.264;6.592;2023-05-10T11:59:53;0.55;;;0.55;;
51995;SDS011;38010;53.264;6.592;2023-05-10T12:02:20;0.50;;;0.50;;
51995;SDS011;38010;53.264;6.592;2023-05-10T12:04:46;1.10;;;0.85;;
51995;SDS011;38010;53.264;6.592;2023-05-10T12:07:12;0.40;;;0.40;;
51995;SDS011;38010;53.264;6.592;2023-05-10T12:09:42;0.40;;;0.40;;
51995;SDS011;38010;53.264;6.592;2023-05-10T12:12:41;0.52;;;0.50;;
51995;SDS011;38010;53.264;6.592;2023-05-10T12:15:17;0.57;;;0.50;;
51995;SDS011;38010;53.264;6.592;2023-05-10T12:17:45;0.65;;;0.50;;
51995;SDS011;38010;53.264;6.592;2023-05-10T12:20:18;0.50;;;0.50;;
51995;SDS011;38010;53.264;6.592;2023-05-10T12:22:55;0.80;;;0.80;;
51995;SDS011;38010;53.264;6.592;2023-05-10T12:25:23;1.02;;;0.90;;
51995;SDS011;38010;53.264;6.592;2023-05-10T12:27:55;0.63;;;0.60;;
51995;SDS011;38010;53.264;6.592;2023-05-10T12:30:22;1.10;;;0.77;;
51995;SDS011;38010;53.264;6.592;2023-05-10T12:35:32;0.90;;;0.70;;
51995;SDS011;38010;53.264;6.592;2023-05-10T12:41:00;0.50;;;0.50;;
51995;SDS011;38010;53.264;6.592;2023-05-10T12:43:28;0.57;;;0.57;;
51995;SDS011;38010;53.264;6.592;2023-05-10T12:45:54;0.73;;;0.73;;
51995;SDS011;38010;53.264;6.592;2023-05-10T12:48:20;0.60;;;0.57;;
51995;SDS011;38010;53.264;6.592;2023-05-10T12:50:46;0.73;;;0.73;;
51995;SDS011;38010;53.264;6.592;2023-05-10T12:53:13;1.17;;;0.63;;
51995;SDS011;38010;53.264;6.592;2023-05-10T12:55:40;0.88;;;0.80;;
51995;SDS011;38010;53.264;6.592;2023-05-10T12:58:06;1.00;;;0.90;;
51995;SDS011;38010;53.264;6.592;2023-05-10T13:00:32;0.95;;;0.70;;
51995;SDS011;38010;53.264;6.592;2023-05-10T13:02:58;0.70;;;0.70;;
51995;SDS011;38010;53.264;6.592;2023-05-10T13:05:24;0.60;;;0.60;;
51995;SDS011;38010;53.264;6.592;2023-05-10T13:07:49;0.57;;;0.57;;
51995;SDS011;38010;53.264;6.592;2023-05-10T13:10:15;0.90;;;0.80;;
51995;SDS011;38010;53.264;6.592;2023-05-10T13:12:41;0.60;;;0.60;;
51995;SDS011;38010;53.264;6.592;2023-05-10T13:15:07;0.60;;;0.60;;
51995;SDS011;38010;53.264;6.592;2023-05-10T13:17:33;0.70;;;0.70;;
51995;SDS011;38010;53.264;6.592;2023-05-10T13:19:58;1.27;;;0.60;;
51995;SDS011;38010;53.264;6.592;2023-05-10T13:22:24;1.02;;;0.90;;
51995;SDS011;38010;53.264;6.592;2023-05-10T13:24:50;1.17;;;0.70;;
51995;SDS011;38010;53.264;6.592;2023-05-10T13:27:16;1.20;;;0.88;;
51995;SDS011;38010;53.264;6.592;2023-05-10T13:29:41;0.90;;;0.80;;
51995;SDS011;38010;53.264;6.592;2023-05-10T13:32:07;0.90;;;0.70;;
51995;SDS011;38010;53.264;6.592;2023-05-10T13:34:33;0.63;;;0.60;;
51995;SDS011;38010;53.264;6.592;2023-05-10T13:37:00;0.95;;;0.80;;
51995;SDS011;38010;53.264;6.592;2023-05-10T13:39:26;1.15;;;0.80;;
51995;SDS011;38010;53.264;6.592;2023-05-10T13:41:52;0.82;;;0.77;;
51995;SDS011;38010;53.264;6.592;2023-05-10T13:44:20;0.68;;;0.60;;
51995;SDS011;38010;53.264;6.592;2023-05-10T13:46:45;0.93;;;0.80;;
51995;SDS011;38010;53.264;6.592;2023-05-10T13:49:11;0.93;;;0.80;;
51995;SDS011;38010;53.264;6.592;2023-05-10T13:51:37;0.57;;;0.57;;
51995;SDS011;38010;53.264;6.592;2023-05-10T13:54:03;0.60;;;0.60;;
51995;SDS011;38010;53.264;6.592;2023-05-10T13:56:28;0.77;;;0.77;;
51995;SDS011;38010;53.264;6.592;2023-05-10T13:58:55;0.68;;;0.63;;
51995;SDS011;38010;53.264;6.592;2023-05-10T14:01:22;1.60;;;0.88;;
51995;SDS011;38010;53.264;6.592;2023-05-10T14:03:48;0.80;;;0.60;;
51995;SDS011;38010;53.264;6.592;2023-05-10T14:06:13;0.75;;;0.60;;
51995;SDS011;38010;53.264;6.592;2023-05-10T14:08:39;0.77;;;0.57;;
51995;SDS011;38010;53.264;6.592;2023-05-10T14:11:05;0.63;;;0.63;;
51995;SDS011;38010;53.264;6.592;2023-05-10T14:13:31;1.17;;;0.68;;
51995;SDS011;38010;53.264;6.592;2023-05-10T14:15:57;0.70;;;0.70;;
51995;SDS011;38010;53.264;6.592;2023-05-10T14:18:25;0.85;;;0.80;;
51995;SDS011;38010;53.264;6.592;2023-05-10T14:20:54;1.02;;;0.70;;
51995;SDS011;38010;53.264;6.592;2023-05-10T14:23:21;0.65;;;0.65;;
51995;SDS011;38010;53.264;6.592;2023-05-10T14:25:49;0.65;;;0.60;;
51995;SDS011;38010;53.264;6.592;2023-05-10T14:28:16;0.63;;;0.60;;
51995;SDS011;38010;53.264;6.592;2023-05-10T14:30:45;0.70;;;0.70;;
51995;SDS011;38010;53.264;6.592;2023-05-10T14:33:11;0.85;;;0.60;;
51995;SDS011;38010;53.264;6.592;2023-05-10T14:35:37;1.45;;;0.70;;
51995;SDS011;38010;53.264;6.592;2023-05-10T14:38:03;0.90;;;0.77;;
51995;SDS011;38010;53.264;6.592;2023-05-10T14:40:30;0.73;;;0.70;;
51995;SDS011;38010;53.264;6.592;2023-05-10T14:42:55;0.70;;;0.70;;
51995;SDS011;38010;53.264;6.592;2023-05-10T14:45:21;0.70;;;0.70;;
51995;SDS011;38010;53.264;6.592;2023-05-10T14:47:48;0.52;;;0.52;;
51995;SDS011;38010;53.264;6.592;2023-05-10T14:50:15;0.70;;;0.70;;
51995;SDS011;38010;53.264;6.592;2023-05-10T14:52:44;0.80;;;0.80;;
51995;SDS011;38010;53.264;6.592;2023-05-10T14:55:10;0.70;;;0.70;;
51995;SDS011;38010;53.264;6.592;2023-05-10T14:57:36;1.00;;;0.80;;
51995;SDS011;38010;53.264;6.592;2023-05-10T15:00:02;0.70;;;0.70;;
51995;SDS011;38010;53.264;6.592;2023-05-10T15:02:30;0.93;;;0.85;;
51995;SDS011;38010;53.264;6.592;2023-05-10T15:04:56;1.25;;;0.80;;
51995;SDS011;38010;53.264;6.592;2023-05-10T15:07:22;0.82;;;0.68;;
51995;SDS011;38010;53.264;6.592;2023-05-10T15:09:49;0.82;;;0.80;;
51995;SDS011;38010;53.264;6.592;2023-05-10T15:12:16;0.80;;;0.77;;
51995;SDS011;38010;53.264;6.592;2023-05-10T15:14:42;1.08;;;0.70;;
51995;SDS011;38010;53.264;6.592;2023-05-10T15:17:08;0.93;;;0.82;;
51995;SDS011;38010;53.264;6.592;2023-05-10T15:19:34;1.30;;;1.00;;
51995;SDS011;38010;53.264;6.592;2023-05-10T15:21:59;1.58;;;1.05;;
51995;SDS011;38010;53.264;6.592;2023-05-10T15:24:25;1.25;;;1.15;;
51995;SDS011;38010;53.264;6.592;2023-05-10T15:26:51;1.17;;;1.00;;
51995;SDS011;38010;53.264;6.592;2023-05-10T15:29:17;1.00;;;0.95;;
51995;SDS011;38010;53.264;6.592;2023-05-10T15:31:48;1.05;;;1.00;;
51995;SDS011;38010;53.264;6.592;2023-05-10T15:34:15;1.38;;;1.00;;
51995;SDS011;38010;53.264;6.592;2023-05-10T15:36:41;0.98;;;0.90;;
51995;SDS011;38010;53.264;6.592;2023-05-10T15:39:07;1.00;;;0.90;;